createdAt,value
2023-02-03T11:49:48.036Z,95.70
2023-02-03T11:53:02.072Z,88.50
2023-02-03T11:55:45.132Z,89.80
2023-02-03T11:58:30.639Z,88.00
2023-02-03T12:01:03.438Z,86.70
2023-02-03T12:03:49.116Z,87.70
2023-02-03T12:06:29.684Z,87.90
2023-02-03T12:09:33.148Z,87.20
2023-02-03T12:12:33.833Z,89.10
2023-02-03T12:15:18.487Z,89.20
2023-02-03T12:18:09.557Z,89.80
2023-02-03T12:21:00.257Z,90.50
2023-02-03T12:23:51.631Z,90.00
2023-02-03T12:26:25.216Z,90.50
2023-02-03T12:29:19.795Z,90.10
2023-02-03T12:32:04.228Z,90.10
2023-02-03T12:34:39.247Z,90.20
2023-02-03T12:37:12.742Z,90.10
2023-02-03T12:40:04.891Z,89.30
2023-02-03T12:42:38.786Z,89.40
2023-02-03T12:45:13.265Z,89.20
2023-02-03T12:47:50.573Z,90.20
2023-02-03T12:50:21.646Z,88.60
2023-02-03T12:52:56.095Z,88.80
2023-02-03T12:55:22.874Z,90.30
2023-02-03T12:58:00.208Z,89.40
2023-02-03T13:00:47.803Z,89.30
2023-02-03T13:03:24.279Z,89.50
2023-02-03T13:06:11.902Z,90.00
2023-02-03T13:08:51.577Z,88.20
2023-02-03T13:11:52.052Z,88.40
2023-02-03T13:14:28.220Z,89.10
2023-02-03T13:17:01.659Z,90.70
2023-02-03T13:19:40.270Z,89.40
2023-02-03T13:22:15.178Z,88.80
2023-02-03T13:24:46.636Z,88.30
2023-02-03T13:27:49.947Z,89.20
2023-02-03T13:30:46.099Z,89.10
2023-02-03T13:33:40.408Z,88.50
2023-02-03T13:36:38.517Z,89.10
2023-02-03T13:39:24.390Z,90.20
2023-02-03T13:41:55.373Z,91.40
2023-02-03T13:44:29.421Z,88.50
2023-02-03T13:47:00.295Z,89.60
2023-02-03T13:49:33.654Z,87.90
2023-02-03T13:52:00.948Z,87.90
2023-02-03T13:54:35.939Z,88.20
2023-02-03T13:57:05.741Z,88.30
2023-02-03T13:59:38.754Z,88.50
2023-02-03T14:02:24.390Z,87.40
2023-02-03T14:04:56.853Z,87.50
2023-02-03T14:07:35.255Z,88.20
2023-02-03T14:10:20.238Z,86.80
2023-02-03T14:12:49.757Z,86.60
2023-02-03T14:15:21.847Z,86.40
2023-02-03T14:17:48.596Z,86.80
2023-02-03T14:20:27.507Z,86.80
2023-02-03T14:23:06.279Z,86.80
2023-02-03T14:25:40.985Z,87.00
2023-02-03T14:28:11.389Z,86.80
2023-02-03T14:31:03.045Z,86.60
2023-02-03T14:33:58.686Z,86.70
2023-02-03T14:36:35.155Z,86.60
2023-02-03T14:39:20.012Z,86.60
2023-02-03T14:41:52.781Z,86.80
2023-02-03T14:44:28.722Z,86.60
2023-02-03T14:47:32.313Z,86.40
2023-02-03T14:50:22.492Z,86.20
2023-02-03T14:53:28.345Z,86.00
2023-02-03T14:55:58.366Z,85.80
2023-02-03T14:58:31.150Z,86.10
2023-02-03T15:00:59.109Z,85.60
2023-02-03T15:03:30.124Z,85.60
2023-02-03T15:06:06.133Z,85.90
2023-02-03T15:08:42.989Z,85.80
2023-02-03T15:11:27.048Z,86.00
2023-02-03T15:13:55.944Z,85.90
2023-02-03T15:16:24.595Z,85.80
2023-02-03T15:19:07.310Z,86.20
2023-02-03T15:21:42.397Z,86.10
2023-02-03T15:24:19.584Z,86.00
2023-02-03T15:26:48.685Z,86.10
2023-02-03T15:29:28.889Z,86.10
2023-02-03T15:32:05.499Z,86.10
2023-02-03T15:34:41.724Z,86.10
2023-02-03T15:37:34.146Z,85.80
2023-02-03T15:40:09.701Z,86.00
2023-02-03T15:42:43.254Z,86.00
2023-02-03T15:45:31.729Z,86.20
2023-02-03T15:48:17.445Z,85.90
2023-02-03T15:50:53.238Z,86.20
2023-02-03T15:53:45.344Z,86.20
2023-02-03T15:56:23.259Z,90.30
2023-02-03T15:58:50.616Z,87.10
2023-02-03T16:01:23.399Z,87.00
2023-02-03T16:03:53.048Z,87.10
2023-02-03T16:06:30.437Z,88.50
2023-02-03T16:08:59.581Z,88.50
2023-02-03T16:11:37.384Z,88.80
2023-02-03T16:14:10.699Z,90.10
2023-02-03T16:16:47.179Z,89.80
2023-02-03T16:19:23.519Z,89.20
2023-02-03T16:21:50.294Z,89.10
2023-02-03T16:24:42.562Z,88.90
2023-02-03T16:27:27.407Z,90.00
2023-02-03T16:30:33.151Z,89.70
2023-02-03T16:33:27.463Z,90.00
2023-02-03T16:36:17.193Z,90.30
2023-02-03T16:39:06.952Z,90.50
2023-02-03T16:41:54.332Z,92.40
2023-02-03T16:44:42.067Z,90.40
2023-02-03T16:47:45.488Z,90.00
2023-02-03T16:50:38.724Z,90.40
2023-02-03T16:53:11.223Z,89.20
2023-02-03T16:55:38.037Z,91.40
2023-02-03T16:58:04.831Z,89.90
2023-02-03T17:00:34.668Z,88.90
2023-02-03T17:03:04.768Z,89.80
2023-02-03T17:05:32.013Z,90.40
2023-02-03T17:07:58.966Z,90.20
2023-02-03T17:10:28.539Z,90.40
2023-02-03T17:12:55.312Z,90.30
2023-02-03T17:15:22.106Z,90.20
2023-02-03T17:17:48.863Z,89.50
2023-02-03T17:20:15.904Z,89.60
2023-02-03T17:22:42.661Z,89.30
2023-02-03T17:25:09.640Z,89.10
2023-02-03T17:27:36.537Z,89.20
2023-02-03T17:30:04.377Z,88.90
2023-02-03T17:32:31.309Z,90.20
2023-02-03T17:35:00.547Z,90.20
2023-02-03T17:37:27.483Z,90.10
2023-02-03T17:53:40.166Z,89.70
2023-02-03T17:56:12.556Z,89.30
2023-02-03T17:58:41.152Z,90.50
2023-02-03T18:01:19.699Z,90.90
2023-02-03T18:03:48.481Z,90.50
2023-02-03T18:06:18.075Z,90.60
2023-02-03T18:08:45.794Z,90.30
2023-02-03T18:11:13.838Z,90.10
2023-02-03T18:13:43.228Z,90.70
2023-02-03T18:16:15.282Z,90.90
2023-02-03T18:18:43.556Z,90.40
2023-02-03T18:21:12.895Z,90.20
2023-02-03T18:23:40.522Z,91.10
2023-02-03T18:26:09.788Z,91.00
2023-02-03T18:28:37.976Z,91.40
2023-02-03T18:31:10.100Z,92.00
2023-02-03T18:33:38.031Z,91.60
2023-02-03T18:36:05.845Z,93.70
2023-02-03T18:38:34.508Z,90.80
2023-02-03T18:41:09.734Z,91.70
2023-02-03T18:43:36.548Z,96.40
2023-02-03T18:46:09.607Z,96.80
2023-02-03T18:48:36.831Z,90.50
2023-02-03T18:51:07.341Z,90.40
2023-02-03T18:53:34.094Z,91.00
2023-02-03T18:56:00.909Z,90.50
2023-02-03T18:58:28.302Z,90.30
2023-02-03T19:00:59.032Z,90.50
2023-02-03T19:03:26.777Z,90.50
2023-02-03T19:05:54.307Z,90.70
2023-02-03T19:08:21.130Z,90.80
2023-02-03T19:10:51.931Z,91.00
2023-02-03T19:13:19.909Z,91.30
2023-02-03T19:15:49.273Z,91.40
2023-02-03T19:18:16.574Z,90.20
2023-02-03T19:20:44.282Z,89.70
2023-02-03T19:23:14.609Z,90.80
2023-02-03T19:25:41.499Z,91.00
2023-02-03T19:28:17.369Z,91.30
2023-02-03T19:30:45.006Z,91.00
2023-02-03T19:33:12.405Z,90.60
2023-02-03T19:35:39.468Z,91.20
2023-02-03T19:38:06.271Z,91.20
2023-02-03T19:40:33.442Z,91.00
2023-02-03T19:43:00.560Z,90.90
2023-02-03T19:45:27.553Z,90.90
2023-02-03T19:47:54.300Z,90.80
2023-02-03T19:50:21.077Z,91.40
2023-02-03T19:52:49.149Z,91.50
2023-02-03T19:55:18.724Z,91.20
2023-02-03T19:57:45.543Z,91.50
2023-02-03T20:00:13.412Z,91.70
2023-02-03T20:02:43.768Z,91.50
2023-02-03T20:05:11.080Z,91.90
2023-02-03T20:07:38.030Z,91.80
2023-02-03T20:10:05.057Z,92.00
2023-02-03T20:12:32.191Z,92.30
2023-02-03T20:15:01.361Z,92.50
2023-02-03T20:17:29.006Z,95.60
2023-02-03T20:19:56.096Z,96.60
2023-02-03T20:22:23.099Z,99.10
2023-02-03T20:24:49.925Z,91.30
2023-02-03T20:27:17.905Z,91.30
2023-02-03T20:29:44.946Z,90.80
2023-02-03T20:32:11.965Z,91.10
2023-02-03T20:34:39.568Z,91.30
2023-02-03T20:37:08.020Z,91.50
2023-02-03T20:39:35.238Z,92.00
2023-02-03T20:42:02.131Z,92.20
2023-02-03T20:44:28.953Z,91.20
2023-02-03T20:46:56.026Z,91.10
2023-02-03T20:49:22.886Z,91.50
2023-02-03T20:51:49.695Z,91.40
2023-02-03T20:54:21.620Z,91.70
2023-02-03T20:56:48.865Z,91.30
2023-02-03T20:59:19.924Z,91.70
2023-02-03T21:01:47.270Z,91.40
2023-02-03T21:04:34.146Z,91.60
2023-02-03T21:07:06.574Z,89.80
2023-02-03T21:09:33.325Z,90.30
2023-02-03T21:12:01.497Z,90.40
2023-02-03T21:14:38.589Z,87.50
2023-02-03T21:17:15.692Z,87.60
2023-02-03T21:19:42.626Z,90.40
2023-02-03T21:22:24.332Z,90.20
